Terminal Aerodrome Forecast
Issued by NWS Boise, ID

Home | Current Version | Previous Version | Text Only | Print | Product List | Glossary On
Versions: 1 2 3 4 5 6 7 8 9 10 11 12 13 14 15 16 17
000
FTUS45 KBOI 260155 AAA
TAFBNO
TAF AMD
KBNO 260155Z 2602/2624 24015G25KT P6SM VCSH OVC050
     FM260500 23012G22KT P6SM -SHRA BKN040 OVC070
     FM261200 24008KT P6SM SCT050 BKN080
     FM261600 24012G22KT P6SM SCT080 BKN120=

USA.gov is the U.S. government's official web portal to all federal, state and local government web resources and services.